createdAt,value
2022-11-09T00:03:25.378Z,14.53
2022-11-09T00:07:28.087Z,15.18
2022-11-09T00:11:28.296Z,15.05
2022-11-09T00:15:28.438Z,15.09
2022-11-09T00:19:29.359Z,14.47
2022-11-09T00:23:31.987Z,15.08
2022-11-09T00:27:32.135Z,15.11
2022-11-09T00:31:32.212Z,14.94
2022-11-09T00:35:32.357Z,14.93
2022-11-09T00:39:35.043Z,15.00
2022-11-09T00:43:36.000Z,14.97
2022-11-09T00:47:36.433Z,14.84
2022-11-09T00:51:36.621Z,14.85
2022-11-09T00:55:39.378Z,14.83
2022-11-09T00:59:39.556Z,14.66
2022-11-09T01:03:40.212Z,14.41
2022-11-09T01:07:41.771Z,14.86
2022-11-09T01:11:44.508Z,14.70
2022-11-09T01:15:46.420Z,14.62
2022-11-09T01:19:46.742Z,14.58
2022-11-09T01:23:48.139Z,14.38
2022-11-09T01:27:50.858Z,14.45
2022-11-09T01:31:51.143Z,14.23
2022-11-09T01:35:51.260Z,14.50
2022-11-09T01:39:51.410Z,14.46
2022-11-09T01:44:13.922Z,14.61
2022-11-09T01:48:20.739Z,14.23
2022-11-09T01:52:30.435Z,14.81
2022-11-09T01:56:32.806Z,14.62
2022-11-09T02:00:39.247Z,14.81
2022-11-09T02:04:46.021Z,14.64
2022-11-09T02:08:48.719Z,14.42
2022-11-09T02:12:49.938Z,14.43
2022-11-09T02:16:53.533Z,14.29
2022-11-09T02:21:00.054Z,14.53
2022-11-09T02:25:00.246Z,14.06
2022-11-09T02:29:04.958Z,14.41
2022-11-09T02:33:06.113Z,14.41
2022-11-09T02:37:09.413Z,14.35
2022-11-09T02:41:12.205Z,14.29
2022-11-09T02:45:14.031Z,14.53
2022-11-09T02:49:15.659Z,14.29
2022-11-09T02:53:18.747Z,14.17
2022-11-09T02:57:19.252Z,14.42
2022-11-09T03:01:19.544Z,14.37
2022-11-09T03:05:20.113Z,14.23
2022-11-09T03:09:23.016Z,13.95
2022-11-09T03:13:24.260Z,13.49
2022-11-09T03:17:27.356Z,13.81
2022-11-09T03:21:28.034Z,14.06
2022-11-09T03:25:31.257Z,13.95
2022-11-09T03:29:33.545Z,13.87
2022-11-09T03:33:34.903Z,13.83
2022-11-09T03:37:35.339Z,14.14
2022-11-09T03:41:39.413Z,14.42
2022-11-09T03:45:42.137Z,14.42
2022-11-09T03:49:42.222Z,14.41
2022-11-09T03:53:42.333Z,14.41
2022-11-09T03:57:46.918Z,14.39
2022-11-09T04:01:48.209Z,14.04
2022-11-09T04:05:48.509Z,13.89
2022-11-09T04:09:48.635Z,14.08
2022-11-09T04:13:51.394Z,14.03
2022-11-09T04:17:58.915Z,14.03
2022-11-09T04:21:59.089Z,14.06
2022-11-09T04:26:02.071Z,14.20
2022-11-09T04:30:04.760Z,14.12
2022-11-09T04:34:04.902Z,13.89
2022-11-09T04:38:08.440Z,13.94
2022-11-09T04:42:09.210Z,13.82
2022-11-09T04:46:11.981Z,13.97
2022-11-09T04:50:13.483Z,14.03
2022-11-09T04:54:14.459Z,14.33
2022-11-09T04:58:14.923Z,14.56
2022-11-09T05:02:17.793Z,14.44
2022-11-09T05:06:30.717Z,14.59
2022-11-09T05:10:31.396Z,14.57
2022-11-09T05:14:31.550Z,14.62
2022-11-09T05:18:34.370Z,14.60
2022-11-09T05:22:47.011Z,14.67
2022-11-09T05:26:47.298Z,14.75
2022-11-09T05:30:47.534Z,14.57
2022-11-09T05:34:50.211Z,14.60
2022-11-09T05:38:50.714Z,14.57
2022-11-09T05:42:51.212Z,14.41
2022-11-09T05:46:52.040Z,14.08
2022-11-09T05:50:54.767Z,14.01
2022-11-09T05:54:57.722Z,13.99
2022-11-09T05:58:58.109Z,14.07
2022-11-09T06:03:04.909Z,14.19
2022-11-09T06:07:08.549Z,14.32
2022-11-09T06:11:12.025Z,14.29
2022-11-09T06:15:12.971Z,14.50
2022-11-09T06:19:13.281Z,14.44
2022-11-09T06:23:16.181Z,14.45
2022-11-09T06:27:16.347Z,14.43
2022-11-09T06:31:20.705Z,14.38
2022-11-09T06:35:21.002Z,14.40
2022-11-09T06:39:23.698Z,14.58
2022-11-09T06:43:24.167Z,14.52
2022-11-09T06:47:24.293Z,14.62
2022-11-09T06:51:24.475Z,14.63
2022-11-09T06:55:27.498Z,14.60
2022-11-09T06:59:27.706Z,14.98
2022-11-09T07:03:29.807Z,15.22
2022-11-09T07:07:30.024Z,15.42
2022-11-09T07:11:33.008Z,15.66
2022-11-09T07:15:33.888Z,15.56
2022-11-09T07:19:34.164Z,15.64
2022-11-09T07:23:34.288Z,15.83
2022-11-09T07:27:38.108Z,15.75
2022-11-09T07:31:38.304Z,15.51
2022-11-09T07:35:38.934Z,15.71
2022-11-09T07:39:39.013Z,15.88
2022-11-09T07:43:41.662Z,15.91
2022-11-09T07:47:41.877Z,15.73
2022-11-09T07:51:42.424Z,16.15
2022-11-09T07:55:43.078Z,15.79
2022-11-09T07:59:46.160Z,15.92
2022-11-09T08:03:46.381Z,15.88
2022-11-09T08:07:46.653Z,16.05
2022-11-09T08:11:46.775Z,15.87
2022-11-09T08:15:49.864Z,15.89
2022-11-09T08:19:50.147Z,16.47
2022-11-09T08:23:50.781Z,16.44
2022-11-09T08:27:51.464Z,16.62
2022-11-09T08:31:55.341Z,16.70
2022-11-09T08:35:55.610Z,16.83
2022-11-09T08:39:55.693Z,16.90
2022-11-09T08:43:55.791Z,16.87
2022-11-09T08:48:04.291Z,16.43
2022-11-09T08:52:04.992Z,16.35
2022-11-09T08:56:05.284Z,16.30
2022-11-09T09:00:07.794Z,16.66
2022-11-09T09:04:13.726Z,16.84
2022-11-09T09:08:15.694Z,17.21
2022-11-09T09:12:15.888Z,16.58
2022-11-09T09:16:19.087Z,16.53
2022-11-09T09:20:22.175Z,16.63
2022-11-09T09:24:22.530Z,16.55
2022-11-09T09:28:22.877Z,16.84
2022-11-09T09:32:23.259Z,17.09
2022-11-09T09:36:28.632Z,17.18
2022-11-09T09:40:37.616Z,17.37
2022-11-09T09:44:46.259Z,17.49
2022-11-09T09:48:54.444Z,17.59
2022-11-09T09:53:23.232Z,17.80
2022-11-09T09:57:28.790Z,17.98
2022-11-09T10:01:40.086Z,18.14
2022-11-09T10:05:57.487Z,17.69
2022-11-09T10:10:20.378Z,18.23
2022-11-09T10:15:02.648Z,18.13
2022-11-09T10:19:29.159Z,18.82
2022-11-09T10:24:03.392Z,18.78
2022-11-09T10:28:13.563Z,19.08
2022-11-09T10:32:19.274Z,18.89
2022-11-09T10:36:30.279Z,18.54
2022-11-09T10:40:36.976Z,18.39
2022-11-09T10:44:58.815Z,18.07
2022-11-09T10:49:24.513Z,18.15
2022-11-09T10:53:43.325Z,18.07
2022-11-09T10:58:06.431Z,18.20
2022-11-09T11:02:53.364Z,19.13
2022-11-09T11:07:21.601Z,19.89
2022-11-09T11:11:42.849Z,21.34
2022-11-09T11:16:02.347Z,22.57
2022-11-09T11:20:36.330Z,22.99
2022-11-09T11:24:59.763Z,22.63
2022-11-09T11:29:34.240Z,23.01
2022-11-09T11:33:53.309Z,22.25
2022-11-09T11:38:30.347Z,21.53
2022-11-09T11:43:13.892Z,21.24
2022-11-09T11:47:48.226Z,21.39
2022-11-09T11:52:20.127Z,21.35
2022-11-09T11:56:46.826Z,21.39
2022-11-09T12:01:27.243Z,22.97
2022-11-09T12:06:44.223Z,23.70
2022-11-09T12:11:18.553Z,23.34
2022-11-09T12:15:56.540Z,23.29
2022-11-09T12:20:33.988Z,23.62
2022-11-09T12:25:03.084Z,24.60
2022-11-09T12:29:25.435Z,25.06
2022-11-09T12:33:53.640Z,24.52
2022-11-09T12:38:21.222Z,24.22
2022-11-09T12:42:47.790Z,23.27
2022-11-09T12:47:15.553Z,22.98
2022-11-09T12:51:38.260Z,22.63
2022-11-09T12:56:03.690Z,22.36
2022-11-09T13:00:55.370Z,25.04
2022-11-09T13:05:33.393Z,24.48
2022-11-09T13:10:02.663Z,25.19
2022-11-09T13:14:45.023Z,25.54
2022-11-09T13:19:06.180Z,24.27
2022-11-09T13:29:17.020Z,25.16
2022-11-09T13:33:39.696Z,25.54
2022-11-09T13:38:00.566Z,26.22
2022-11-09T13:42:32.138Z,26.35
2022-11-09T13:46:53.889Z,25.25
2022-11-09T13:51:18.558Z,25.47
2022-11-09T13:55:41.244Z,24.48
2022-11-09T14:00:03.277Z,24.24
2022-11-09T14:04:26.840Z,23.81
2022-11-09T14:08:49.428Z,22.83
2022-11-09T14:13:32.494Z,22.90
2022-11-09T14:18:08.008Z,22.38
2022-11-09T14:22:26.827Z,21.87
2022-11-09T14:27:18.084Z,21.19
2022-11-09T14:31:46.599Z,20.78
2022-11-09T14:36:07.799Z,20.10
2022-11-09T14:40:29.787Z,20.66
2022-11-09T14:44:52.623Z,19.71
2022-11-09T14:49:14.962Z,19.81
2022-11-09T14:53:37.808Z,19.66
2022-11-09T14:57:59.385Z,19.50
2022-11-09T15:02:23.045Z,19.73
2022-11-09T15:06:51.031Z,19.32
2022-11-09T15:11:10.476Z,19.51
2022-11-09T15:15:33.108Z,19.37
2022-11-09T15:19:57.732Z,19.39
2022-11-09T15:24:20.175Z,19.38
2022-11-09T15:28:50.739Z,19.17
2022-11-09T15:33:28.924Z,19.21
2022-11-09T15:37:56.487Z,18.83
2022-11-09T15:42:15.729Z,18.91
2022-11-09T15:46:40.200Z,18.59
2022-11-09T15:50:59.796Z,18.85
2022-11-09T15:55:25.832Z,18.87
2022-11-09T15:59:44.823Z,18.84
2022-11-09T16:04:03.423Z,18.83
2022-11-09T16:08:22.737Z,18.23
2022-11-09T16:12:46.533Z,18.12
2022-11-09T16:17:05.960Z,17.94
2022-11-09T16:21:24.823Z,17.83
2022-11-09T16:25:44.835Z,17.49
2022-11-09T16:30:07.415Z,17.64
2022-11-09T16:34:26.001Z,17.78
2022-11-09T16:38:48.523Z,17.88
2022-11-09T16:43:07.394Z,17.68
2022-11-09T16:47:28.642Z,17.62
2022-11-09T16:51:47.012Z,17.70
2022-11-09T16:56:05.744Z,17.45
2022-11-09T17:00:33.749Z,17.64
2022-11-09T17:05:07.381Z,17.43
2022-11-09T17:09:26.020Z,17.41
2022-11-09T17:13:45.051Z,17.29
2022-11-09T17:18:03.676Z,17.36
2022-11-09T17:22:25.447Z,17.29
2022-11-09T17:26:44.071Z,17.34
2022-11-09T17:31:02.847Z,16.94
2022-11-09T17:35:21.463Z,17.17
2022-11-09T17:39:42.695Z,17.11
2022-11-09T17:44:04.151Z,17.15
2022-11-09T17:48:23.122Z,16.95
2022-11-09T17:52:42.206Z,17.01
2022-11-09T17:57:04.080Z,17.03
2022-11-09T18:01:24.483Z,16.89
2022-11-09T18:05:45.473Z,16.63
2022-11-09T18:10:04.213Z,16.32
2022-11-09T18:14:25.622Z,15.97
2022-11-09T18:18:44.713Z,16.42
2022-11-09T18:23:03.214Z,16.59
2022-11-09T18:27:26.077Z,16.52
2022-11-09T18:31:52.080Z,16.08
2022-11-09T18:36:15.772Z,16.02
2022-11-09T18:40:34.958Z,16.11
2022-11-09T18:44:53.744Z,16.21
2022-11-09T18:49:15.413Z,16.40
2022-11-09T18:53:39.300Z,16.44
2022-11-09T18:57:57.875Z,16.41
2022-11-09T19:02:17.192Z,16.44
2022-11-09T19:06:38.743Z,16.45
2022-11-09T19:10:57.453Z,16.32
2022-11-09T19:15:16.122Z,16.43
2022-11-09T19:19:34.544Z,16.40
2022-11-09T19:23:56.804Z,16.41
2022-11-09T19:28:15.301Z,16.39
2022-11-09T19:32:33.991Z,16.46
2022-11-09T19:36:52.947Z,16.08
2022-11-09T19:41:14.555Z,16.45
2022-11-09T19:45:32.996Z,16.50
2022-11-09T19:49:51.871Z,16.40
2022-11-09T19:54:10.965Z,16.21
2022-11-09T19:58:31.994Z,16.23
2022-11-09T20:02:53.275Z,16.03
2022-11-09T20:07:12.560Z,16.09
2022-11-09T20:11:48.430Z,15.54
2022-11-09T20:16:13.234Z,15.96
2022-11-09T20:20:35.155Z,16.02
2022-11-09T20:25:04.962Z,15.60
2022-11-09T20:29:36.955Z,15.66
2022-11-09T20:34:03.170Z,15.76
2022-11-09T20:38:23.212Z,16.20
2022-11-09T20:42:42.728Z,16.26
2022-11-09T20:47:01.993Z,15.75
2022-11-09T20:51:29.081Z,15.89
2022-11-09T20:55:50.961Z,16.37
2022-11-09T21:06:05.073Z,16.34
2022-11-09T21:10:26.961Z,16.30
2022-11-09T21:14:45.638Z,16.15
2022-11-09T21:19:04.596Z,16.08
2022-11-09T21:23:39.074Z,16.14
2022-11-09T21:28:24.285Z,15.81
2022-11-09T21:32:43.870Z,16.24
2022-11-09T21:37:02.560Z,15.90
2022-11-09T21:41:33.955Z,16.05
2022-11-09T21:45:56.508Z,16.01
2022-11-09T21:50:15.546Z,15.92
2022-11-09T21:54:34.152Z,16.00
2022-11-09T21:58:53.154Z,16.03
2022-11-09T22:03:14.629Z,16.14
2022-11-09T22:07:32.984Z,16.21
2022-11-09T22:12:04.068Z,16.16
2022-11-09T22:16:26.340Z,16.14
2022-11-09T22:20:59.328Z,16.13
2022-11-09T22:25:18.316Z,15.96
2022-11-09T22:29:36.782Z,16.15
2022-11-09T22:33:56.369Z,16.29
2022-11-09T22:38:17.787Z,16.28
2022-11-09T22:42:36.770Z,16.34
2022-11-09T22:46:55.777Z,15.14
2022-11-09T22:51:17.202Z,16.46
2022-11-09T22:55:38.653Z,16.34
2022-11-09T22:59:57.113Z,16.34
2022-11-09T23:04:15.955Z,16.27
2022-11-09T23:08:38.168Z,16.04
2022-11-09T23:13:01.615Z,16.14
2022-11-09T23:17:32.629Z,16.31
2022-11-09T23:21:51.480Z,16.40
2022-11-09T23:26:11.633Z,16.16
2022-11-09T23:30:32.984Z,15.86
2022-11-09T23:34:51.496Z,16.27
2022-11-09T23:39:10.609Z,16.36
2022-11-09T23:43:29.132Z,16.39
2022-11-09T23:47:50.338Z,16.11
2022-11-09T23:52:09.201Z,16.15
2022-11-09T23:56:27.840Z,16.18
